sensor_id;sensor_type;location;lat;lon;timestamp;pressure;altitude;pressure_sealevel;temperature;humidity
37206;BME280;23099;42.636;23.198;2022-12-18T00:02:04;92635.41;;;7.02;100.00
37206;BME280;23099;42.636;23.198;2022-12-18T00:04:31;92648.41;;;7.03;100.00
37206;BME280;23099;42.636;23.198;2022-12-18T00:06:59;92649.75;;;7.09;100.00
37206;BME280;23099;42.636;23.198;2022-12-18T00:09:26;92655.91;;;7.01;100.00
37206;BME280;23099;42.636;23.198;2022-12-18T00:11:52;92650.31;;;6.94;100.00
37206;BME280;23099;42.636;23.198;2022-12-18T00:14:19;92663.00;;;6.89;100.00
37206;BME280;23099;42.636;23.198;2022-12-18T00:16:46;92662.88;;;6.85;100.00
37206;BME280;23099;42.636;23.198;2022-12-18T00:19:14;92667.00;;;6.74;100.00
37206;BME280;23099;42.636;23.198;2022-12-18T00:21:42;92666.22;;;6.73;100.00
37206;BME280;23099;42.636;23.198;2022-12-18T00:24:11;92667.88;;;6.78;100.00
37206;BME280;23099;42.636;23.198;2022-12-18T00:26:38;92661.34;;;6.76;100.00
37206;BME280;23099;42.636;23.198;2022-12-18T00:29:10;92667.13;;;6.78;100.00
37206;BME280;23099;42.636;23.198;2022-12-18T00:31:39;92668.88;;;6.73;100.00
37206;BME280;23099;42.636;23.198;2022-12-18T00:34:06;92672.47;;;6.69;100.00
37206;BME280;23099;42.636;23.198;2022-12-18T00:36:34;92673.88;;;6.66;100.00
37206;BME280;23099;42.636;23.198;2022-12-18T00:39:03;92674.66;;;6.67;100.00
37206;BME280;23099;42.636;23.198;2022-12-18T00:41:31;92681.06;;;6.66;100.00
37206;BME280;23099;42.636;23.198;2022-12-18T00:44:16;92688.66;;;6.47;100.00
37206;BME280;23099;42.636;23.198;2022-12-18T00:46:44;92694.94;;;6.25;100.00
37206;BME280;23099;42.636;23.198;2022-12-18T00:49:11;92689.84;;;6.02;100.00
37206;BME280;23099;42.636;23.198;2022-12-18T00:51:38;92683.94;;;5.97;100.00
37206;BME280;23099;42.636;23.198;2022-12-18T00:54:05;92686.91;;;6.04;100.00
37206;BME280;23099;42.636;23.198;2022-12-18T00:56:35;92691.25;;;6.00;100.00
37206;BME280;23099;42.636;23.198;2022-12-18T00:59:01;92685.31;;;5.94;100.00
37206;BME280;23099;42.636;23.198;2022-12-18T01:01:28;92694.66;;;6.09;100.00
37206;BME280;23099;42.636;23.198;2022-12-18T01:03:59;92699.03;;;6.14;100.00
37206;BME280;23099;42.636;23.198;2022-12-18T01:06:26;92696.69;;;6.12;100.00
37206;BME280;23099;42.636;23.198;2022-12-18T01:08:52;92698.09;;;6.10;100.00
37206;BME280;23099;42.636;23.198;2022-12-18T01:11:20;92701.38;;;6.07;100.00
37206;BME280;23099;42.636;23.198;2022-12-18T01:13:49;92704.38;;;6.05;100.00
37206;BME280;23099;42.636;23.198;2022-12-18T01:16:17;92708.25;;;6.08;100.00
37206;BME280;23099;42.636;23.198;2022-12-18T01:18:44;92702.81;;;6.04;100.00
37206;BME280;23099;42.636;23.198;2022-12-18T01:21:12;92700.78;;;6.01;100.00
37206;BME280;23099;42.636;23.198;2022-12-18T01:23:39;92701.09;;;5.99;100.00
37206;BME280;23099;42.636;23.198;2022-12-18T01:26:07;92709.38;;;5.98;100.00
37206;BME280;23099;42.636;23.198;2022-12-18T01:28:34;92699.38;;;5.95;100.00
37206;BME280;23099;42.636;23.198;2022-12-18T01:31:14;92700.34;;;5.90;100.00
37206;BME280;23099;42.636;23.198;2022-12-18T01:33:41;92703.00;;;5.90;100.00
37206;BME280;23099;42.636;23.198;2022-12-18T01:36:13;92707.50;;;5.98;100.00
37206;BME280;23099;42.636;23.198;2022-12-18T01:38:40;92710.16;;;5.98;100.00
37206;BME280;23099;42.636;23.198;2022-12-18T01:41:08;92713.56;;;5.82;100.00
37206;BME280;23099;42.636;23.198;2022-12-18T01:43:47;92716.53;;;5.72;100.00
37206;BME280;23099;42.636;23.198;2022-12-18T01:46:16;92722.59;;;5.81;100.00
37206;BME280;23099;42.636;23.198;2022-12-18T01:48:44;92730.56;;;5.72;100.00
37206;BME280;23099;42.636;23.198;2022-12-18T01:51:11;92728.22;;;5.79;100.00
37206;BME280;23099;42.636;23.198;2022-12-18T01:53:40;92733.22;;;5.81;100.00
37206;BME280;23099;42.636;23.198;2022-12-18T01:56:08;92735.72;;;5.77;100.00
37206;BME280;23099;42.636;23.198;2022-12-18T01:58:43;92731.34;;;5.73;100.00
37206;BME280;23099;42.636;23.198;2022-12-18T02:01:12;92732.13;;;5.64;100.00
37206;BME280;23099;42.636;23.198;2022-12-18T02:03:42;92730.09;;;5.61;100.00
37206;BME280;23099;42.636;23.198;2022-12-18T02:06:13;92726.66;;;5.44;100.00
37206;BME280;23099;42.636;23.198;2022-12-18T02:08:48;92735.38;;;5.53;100.00
37206;BME280;23099;42.636;23.198;2022-12-18T02:11:24;92747.88;;;5.52;100.00
37206;BME280;23099;42.636;23.198;2022-12-18T02:14:00;92739.78;;;5.57;100.00
37206;BME280;23099;42.636;23.198;2022-12-18T02:16:36;92739.47;;;5.67;100.00
37206;BME280;23099;42.636;23.198;2022-12-18T02:19:16;92750.38;;;5.57;100.00
37206;BME280;23099;42.636;23.198;2022-12-18T02:21:52;92755.97;;;5.64;100.00
37206;BME280;23099;42.636;23.198;2022-12-18T02:24:29;92757.88;;;5.73;100.00
37206;BME280;23099;42.636;23.198;2022-12-18T02:27:03;92756.16;;;5.85;100.00
37206;BME280;23099;42.636;23.198;2022-12-18T02:29:34;92751.06;;;5.89;100.00
37206;BME280;23099;42.636;23.198;2022-12-18T02:32:04;92752.09;;;5.88;100.00
37206;BME280;23099;42.636;23.198;2022-12-18T02:34:34;92747.75;;;5.92;100.00
37206;BME280;23099;42.636;23.198;2022-12-18T02:37:06;92761.47;;;5.94;100.00
37206;BME280;23099;42.636;23.198;2022-12-18T02:39:36;92762.13;;;5.91;100.00
37206;BME280;23099;42.636;23.198;2022-12-18T02:42:06;92760.41;;;5.95;100.00
37206;BME280;23099;42.636;23.198;2022-12-18T02:44:33;92757.59;;;5.91;100.00
37206;BME280;23099;42.636;23.198;2022-12-18T02:47:00;92756.19;;;5.94;100.00
37206;BME280;23099;42.636;23.198;2022-12-18T02:49:33;92764.75;;;5.82;100.00
37206;BME280;23099;42.636;23.198;2022-12-18T02:52:13;92758.34;;;5.83;100.00
37206;BME280;23099;42.636;23.198;2022-12-18T02:54:57;92761.59;;;5.80;100.00
37206;BME280;23099;42.636;23.198;2022-12-18T02:57:34;92762.22;;;5.68;100.00
37206;BME280;23099;42.636;23.198;2022-12-18T03:00:06;92769.25;;;5.64;100.00
37206;BME280;23099;42.636;23.198;2022-12-18T03:02:38;92768.94;;;5.57;100.00
37206;BME280;23099;42.636;23.198;2022-12-18T03:05:10;92765.81;;;5.47;100.00
37206;BME280;23099;42.636;23.198;2022-12-18T03:07:43;92770.75;;;5.31;100.00
37206;BME280;23099;42.636;23.198;2022-12-18T03:10:15;92776.53;;;5.42;100.00
37206;BME280;23099;42.636;23.198;2022-12-18T03:12:49;92783.06;;;5.36;100.00
37206;BME280;23099;42.636;23.198;2022-12-18T03:15:21;92786.69;;;5.40;100.00
37206;BME280;23099;42.636;23.198;2022-12-18T03:17:52;92789.97;;;5.45;100.00
37206;BME280;23099;42.636;23.198;2022-12-18T03:20:24;92788.88;;;5.46;100.00
37206;BME280;23099;42.636;23.198;2022-12-18T03:22:56;92790.88;;;5.41;100.00
37206;BME280;23099;42.636;23.198;2022-12-18T03:25:25;92777.94;;;5.30;99.49
37206;BME280;23099;42.636;23.198;2022-12-18T03:27:58;92796.47;;;5.30;99.35
37206;BME280;23099;42.636;23.198;2022-12-18T03:30:26;92794.75;;;5.34;100.00
37206;BME280;23099;42.636;23.198;2022-12-18T03:33:00;92790.72;;;5.28;99.51
37206;BME280;23099;42.636;23.198;2022-12-18T03:35:31;92798.28;;;5.13;99.83
37206;BME280;23099;42.636;23.198;2022-12-18T03:37:59;92810.78;;;5.21;100.00
37206;BME280;23099;42.636;23.198;2022-12-18T03:40:30;92814.38;;;5.25;99.66
37206;BME280;23099;42.636;23.198;2022-12-18T03:43:04;92826.53;;;5.17;98.10
37206;BME280;23099;42.636;23.198;2022-12-18T03:45:36;92824.66;;;5.18;99.03
37206;BME280;23099;42.636;23.198;2022-12-18T03:48:07;92835.09;;;5.14;99.92
37206;BME280;23099;42.636;23.198;2022-12-18T03:50:39;92833.53;;;5.13;99.59
37206;BME280;23099;42.636;23.198;2022-12-18T03:53:18;92836.03;;;5.18;99.12
37206;BME280;23099;42.636;23.198;2022-12-18T03:55:51;92829.69;;;5.28;99.34
37206;BME280;23099;42.636;23.198;2022-12-18T03:58:22;92833.75;;;5.34;98.81
37206;BME280;23099;42.636;23.198;2022-12-18T04:00:52;92833.13;;;5.37;98.39
37206;BME280;23099;42.636;23.198;2022-12-18T04:03:22;92830.81;;;5.44;98.49
37206;BME280;23099;42.636;23.198;2022-12-18T04:05:50;92838.47;;;5.46;98.12
37206;BME280;23099;42.636;23.198;2022-12-18T04:08:17;92840.00;;;5.38;99.20
37206;BME280;23099;42.636;23.198;2022-12-18T04:10:45;92837.06;;;5.48;99.44
37206;BME280;23099;42.636;23.198;2022-12-18T04:13:12;92839.25;;;5.46;98.08
37206;BME280;23099;42.636;23.198;2022-12-18T04:15:40;92838.47;;;5.46;97.63
37206;BME280;23099;42.636;23.198;2022-12-18T04:18:07;92848.78;;;5.47;97.43
37206;BME280;23099;42.636;23.198;2022-12-18T04:20:34;92853.28;;;5.47;98.36
37206;BME280;23099;42.636;23.198;2022-12-18T04:23:00;92860.47;;;5.46;97.73
37206;BME280;23099;42.636;23.198;2022-12-18T04:25:27;92855.78;;;5.52;97.73
37206;BME280;23099;42.636;23.198;2022-12-18T04:27:54;92864.22;;;5.54;97.18
37206;BME280;23099;42.636;23.198;2022-12-18T04:30:20;92870.91;;;5.51;96.62
37206;BME280;23099;42.636;23.198;2022-12-18T04:32:48;92877.03;;;5.60;96.31
37206;BME280;23099;42.636;23.198;2022-12-18T04:35:15;92877.53;;;5.62;97.74
37206;BME280;23099;42.636;23.198;2022-12-18T04:37:42;92879.22;;;5.58;96.79
37206;BME280;23099;42.636;23.198;2022-12-18T04:40:10;92888.44;;;5.61;95.71
37206;BME280;23099;42.636;23.198;2022-12-18T04:42:36;92877.94;;;5.47;95.65
37206;BME280;23099;42.636;23.198;2022-12-18T04:45:04;92884.28;;;5.38;96.30
37206;BME280;23099;42.636;23.198;2022-12-18T04:47:31;92882.88;;;5.31;96.32
37206;BME280;23099;42.636;23.198;2022-12-18T04:49:59;92883.47;;;5.28;95.80
37206;BME280;23099;42.636;23.198;2022-12-18T04:52:25;92899.66;;;5.18;95.95
37206;BME280;23099;42.636;23.198;2022-12-18T04:54:52;92907.53;;;5.10;96.33
37206;BME280;23099;42.636;23.198;2022-12-18T04:57:19;92908.50;;;4.91;94.48
37206;BME280;23099;42.636;23.198;2022-12-18T04:59:46;92911.66;;;4.93;95.75
37206;BME280;23099;42.636;23.198;2022-12-18T05:02:12;92917.09;;;4.88;95.96
37206;BME280;23099;42.636;23.198;2022-12-18T05:04:39;92920.94;;;4.82;95.72
37206;BME280;23099;42.636;23.198;2022-12-18T05:07:07;92923.09;;;4.80;95.62
37206;BME280;23099;42.636;23.198;2022-12-18T05:09:34;92933.69;;;4.58;95.74
37206;BME280;23099;42.636;23.198;2022-12-18T05:12:00;92937.91;;;4.59;95.67
37206;BME280;23099;42.636;23.198;2022-12-18T05:14:27;92945.47;;;4.52;95.06
37206;BME280;23099;42.636;23.198;2022-12-18T05:16:54;92933.06;;;4.39;96.90
37206;BME280;23099;42.636;23.198;2022-12-18T05:19:21;92941.88;;;4.34;96.05
37206;BME280;23099;42.636;23.198;2022-12-18T05:21:48;92936.38;;;4.44;95.84
37206;BME280;23099;42.636;23.198;2022-12-18T05:24:16;92943.25;;;4.45;95.36
37206;BME280;23099;42.636;23.198;2022-12-18T05:26:42;92938.09;;;4.26;95.33
37206;BME280;23099;42.636;23.198;2022-12-18T05:29:09;92941.81;;;4.25;96.02
37206;BME280;23099;42.636;23.198;2022-12-18T05:31:37;92945.84;;;4.23;96.73
37206;BME280;23099;42.636;23.198;2022-12-18T05:34:04;92957.41;;;4.27;96.52
37206;BME280;23099;42.636;23.198;2022-12-18T05:36:31;92961.03;;;4.31;96.19
37206;BME280;23099;42.636;23.198;2022-12-18T05:38:57;92960.13;;;4.36;96.09
37206;BME280;23099;42.636;23.198;2022-12-18T05:41:27;92959.22;;;4.40;95.73
37206;BME280;23099;42.636;23.198;2022-12-18T05:43:53;92968.34;;;4.34;94.66
37206;BME280;23099;42.636;23.198;2022-12-18T05:46:20;92973.34;;;4.36;94.39
37206;BME280;23099;42.636;23.198;2022-12-18T05:48:47;92975.84;;;4.32;95.53
37206;BME280;23099;42.636;23.198;2022-12-18T05:51:17;92981.19;;;4.41;94.42
37206;BME280;23099;42.636;23.198;2022-12-18T05:53:44;92982.50;;;4.30;93.92
37206;BME280;23099;42.636;23.198;2022-12-18T05:56:13;92979.06;;;4.29;93.97
37206;BME280;23099;42.636;23.198;2022-12-18T05:58:42;92986.19;;;4.42;94.90
37206;BME280;23099;42.636;23.198;2022-12-18T06:01:13;92985.47;;;4.50;93.73
37206;BME280;23099;42.636;23.198;2022-12-18T06:03:40;92984.28;;;4.56;94.23
37206;BME280;23099;42.636;23.198;2022-12-18T06:06:13;92993.22;;;4.60;93.43
37206;BME280;23099;42.636;23.198;2022-12-18T06:08:40;92984.66;;;4.63;93.22
37206;BME280;23099;42.636;23.198;2022-12-18T06:11:06;92998.31;;;4.57;92.49
37206;BME280;23099;42.636;23.198;2022-12-18T06:13:33;92989.50;;;4.48;90.86
37206;BME280;23099;42.636;23.198;2022-12-18T06:16:03;93002.03;;;4.56;92.51
37206;BME280;23099;42.636;23.198;2022-12-18T06:18:30;93000.38;;;4.60;92.42
37206;BME280;23099;42.636;23.198;2022-12-18T06:20:57;92990.72;;;4.64;93.03
37206;BME280;23099;42.636;23.198;2022-12-18T06:23:25;93005.72;;;4.69;92.17
37206;BME280;23099;42.636;23.198;2022-12-18T06:25:51;93006.41;;;4.74;91.96
37206;BME280;23099;42.636;23.198;2022-12-18T06:28:18;93006.22;;;4.71;89.95
37206;BME280;23099;42.636;23.198;2022-12-18T06:30:45;93006.50;;;4.69;89.43
37206;BME280;23099;42.636;23.198;2022-12-18T06:33:15;93013.44;;;4.79;91.27
37206;BME280;23099;42.636;23.198;2022-12-18T06:35:42;93016.22;;;4.74;91.06
37206;BME280;23099;42.636;23.198;2022-12-18T06:38:09;93019.16;;;4.72;90.74
37206;BME280;23099;42.636;23.198;2022-12-18T06:40:37;93018.38;;;4.72;91.68
37206;BME280;23099;42.636;23.198;2022-12-18T06:43:04;93024.66;;;4.76;91.11
37206;BME280;23099;42.636;23.198;2022-12-18T06:45:31;93026.03;;;4.73;89.83
37206;BME280;23099;42.636;23.198;2022-12-18T06:47:57;93032.50;;;4.67;90.35
37206;BME280;23099;42.636;23.198;2022-12-18T06:50:25;93034.13;;;4.77;90.35
37206;BME280;23099;42.636;23.198;2022-12-18T06:52:52;93043.84;;;4.81;90.37
37206;BME280;23099;42.636;23.198;2022-12-18T06:55:19;93041.09;;;4.86;90.18
37206;BME280;23099;42.636;23.198;2022-12-18T06:57:46;93041.69;;;4.83;89.85
37206;BME280;23099;42.636;23.198;2022-12-18T07:00:13;93008.91;;;4.79;90.25
37206;BME280;23099;42.636;23.198;2022-12-18T07:02:40;93031.94;;;4.92;89.75
37206;BME280;23099;42.636;23.198;2022-12-18T07:05:07;93046.44;;;4.95;91.59
37206;BME280;23099;42.636;23.198;2022-12-18T07:07:35;93036.09;;;4.85;90.57
37206;BME280;23099;42.636;23.198;2022-12-18T07:10:02;93044.31;;;4.83;89.86
37206;BME280;23099;42.636;23.198;2022-12-18T07:12:29;93049.81;;;4.87;89.08
37206;BME280;23099;42.636;23.198;2022-12-18T07:14:55;93047.75;;;4.84;87.20
37206;BME280;23099;42.636;23.198;2022-12-18T07:17:22;93048.66;;;4.79;88.34
37206;BME280;23099;42.636;23.198;2022-12-18T07:19:49;93051.72;;;4.73;88.23
37206;BME280;23099;42.636;23.198;2022-12-18T07:22:15;93049.72;;;4.78;87.48
37206;BME280;23099;42.636;23.198;2022-12-18T07:24:43;93055.50;;;4.80;87.11
37206;BME280;23099;42.636;23.198;2022-12-18T07:27:10;93062.66;;;4.80;86.99
37206;BME280;23099;42.636;23.198;2022-12-18T07:29:37;93059.00;;;4.53;84.07
37206;BME280;23099;42.636;23.198;2022-12-18T07:32:04;93065.31;;;4.44;85.85
37206;BME280;23099;42.636;23.198;2022-12-18T07:34:32;93067.53;;;4.50;86.95
37206;BME280;23099;42.636;23.198;2022-12-18T07:36:59;93072.81;;;4.50;86.70
37206;BME280;23099;42.636;23.198;2022-12-18T07:39:25;93076.38;;;4.59;87.38
37206;BME280;23099;42.636;23.198;2022-12-18T07:41:53;93076.16;;;4.56;86.13
37206;BME280;23099;42.636;23.198;2022-12-18T07:44:34;93074.41;;;4.51;85.79
37206;BME280;23099;42.636;23.198;2022-12-18T07:47:01;93075.09;;;4.57;86.76
37206;BME280;23099;42.636;23.198;2022-12-18T07:49:28;93076.25;;;4.51;86.60
37206;BME280;23099;42.636;23.198;2022-12-18T07:51:55;93076.66;;;4.58;86.68
37206;BME280;23099;42.636;23.198;2022-12-18T07:54:22;93070.88;;;4.56;85.84
37206;BME280;23099;42.636;23.198;2022-12-18T07:56:49;93085.56;;;4.62;85.85
37206;BME280;23099;42.636;23.198;2022-12-18T07:59:17;93085.88;;;4.60;86.43
37206;BME280;23099;42.636;23.198;2022-12-18T08:01:44;93087.63;;;4.65;85.39
37206;BME280;23099;42.636;23.198;2022-12-18T08:04:10;93089.09;;;4.71;85.21
37206;BME280;23099;42.636;23.198;2022-12-18T08:06:37;93087.88;;;4.77;87.22
37206;BME280;23099;42.636;23.198;2022-12-18T08:09:04;93101.84;;;4.69;87.91
37206;BME280;23099;42.636;23.198;2022-12-18T08:11:31;93098.97;;;4.79;86.45
37206;BME280;23099;42.636;23.198;2022-12-18T08:13:57;93105.63;;;4.77;85.78
37206;BME280;23099;42.636;23.198;2022-12-18T08:16:26;93098.69;;;4.67;85.41
37206;BME280;23099;42.636;23.198;2022-12-18T08:18:53;93114.69;;;4.76;86.31
37206;BME280;23099;42.636;23.198;2022-12-18T08:21:22;93118.59;;;4.78;86.25
37206;BME280;23099;42.636;23.198;2022-12-18T08:23:50;93128.81;;;4.71;84.69
37206;BME280;23099;42.636;23.198;2022-12-18T08:26:17;93122.44;;;4.72;85.40
37206;BME280;23099;42.636;23.198;2022-12-18T08:28:44;93127.03;;;4.53;83.08
37206;BME280;23099;42.636;23.198;2022-12-18T08:31:11;93122.75;;;4.57;84.33
37206;BME280;23099;42.636;23.198;2022-12-18T08:33:41;93116.16;;;4.54;85.21
37206;BME280;23099;42.636;23.198;2022-12-18T08:36:09;93126.66;;;4.59;85.84
37206;BME280;23099;42.636;23.198;2022-12-18T08:38:36;93127.91;;;4.62;85.45
37206;BME280;23099;42.636;23.198;2022-12-18T08:41:04;93127.25;;;4.70;86.39
37206;BME280;23099;42.636;23.198;2022-12-18T08:43:32;93128.41;;;4.64;85.79
37206;BME280;23099;42.636;23.198;2022-12-18T08:46:16;93128.13;;;4.66;86.92
37206;BME280;23099;42.636;23.198;2022-12-18T08:48:44;93138.03;;;4.60;86.86
37206;BME280;23099;42.636;23.198;2022-12-18T08:51:11;93135.56;;;4.63;85.81
37206;BME280;23099;42.636;23.198;2022-12-18T08:53:38;93131.47;;;4.71;86.63
37206;BME280;23099;42.636;23.198;2022-12-18T08:56:05;93128.88;;;4.80;86.10
37206;BME280;23099;42.636;23.198;2022-12-18T08:58:32;93132.50;;;4.84;86.25
37206;BME280;23099;42.636;23.198;2022-12-18T09:01:00;93132.72;;;4.87;86.56
37206;BME280;23099;42.636;23.198;2022-12-18T09:03:27;93124.38;;;4.80;87.46
37206;BME280;23099;42.636;23.198;2022-12-18T09:05:55;93142.03;;;4.71;86.91
37206;BME280;23099;42.636;23.198;2022-12-18T09:08:22;93138.81;;;4.74;88.94
37206;BME280;23099;42.636;23.198;2022-12-18T09:10:51;93129.09;;;4.83;86.93
37206;BME280;23099;42.636;23.198;2022-12-18T09:13:18;93130.38;;;4.72;86.33
37206;BME280;23099;42.636;23.198;2022-12-18T09:15:46;93129.66;;;4.80;87.36
37206;BME280;23099;42.636;23.198;2022-12-18T09:18:15;93129.97;;;4.79;87.75
37206;BME280;23099;42.636;23.198;2022-12-18T09:20:42;93124.88;;;4.82;86.63
37206;BME280;23099;42.636;23.198;2022-12-18T09:23:11;93129.56;;;4.85;86.21
37206;BME280;23099;42.636;23.198;2022-12-18T09:25:38;93127.59;;;4.77;86.13
37206;BME280;23099;42.636;23.198;2022-12-18T09:28:06;93123.38;;;4.76;86.93
37206;BME280;23099;42.636;23.198;2022-12-18T09:30:37;93125.38;;;4.71;87.51
37206;BME280;23099;42.636;23.198;2022-12-18T09:33:03;93128.31;;;4.69;88.20
37206;BME280;23099;42.636;23.198;2022-12-18T09:35:30;93123.59;;;4.66;87.03
37206;BME280;23099;42.636;23.198;2022-12-18T09:37:57;93125.19;;;4.67;87.26
37206;BME280;23099;42.636;23.198;2022-12-18T09:40:29;93132.91;;;4.77;88.46
37206;BME280;23099;42.636;23.198;2022-12-18T09:43:00;93137.22;;;4.87;87.95
37206;BME280;23099;42.636;23.198;2022-12-18T09:45:31;93136.50;;;4.95;87.95
37206;BME280;23099;42.636;23.198;2022-12-18T09:48:04;93134.78;;;4.90;86.61
37206;BME280;23099;42.636;23.198;2022-12-18T09:50:35;93113.69;;;4.85;87.94
37206;BME280;23099;42.636;23.198;2022-12-18T09:53:06;93129.75;;;5.03;87.29
37206;BME280;23099;42.636;23.198;2022-12-18T09:55:41;93130.22;;;5.05;86.64
37206;BME280;23099;42.636;23.198;2022-12-18T09:58:15;93118.22;;;5.07;86.75
37206;BME280;23099;42.636;23.198;2022-12-18T10:00:43;93115.78;;;5.11;86.50
37206;BME280;23099;42.636;23.198;2022-12-18T10:03:11;93119.28;;;5.20;87.61
37206;BME280;23099;42.636;23.198;2022-12-18T10:05:45;93108.59;;;5.11;86.82
37206;BME280;23099;42.636;23.198;2022-12-18T10:08:21;93112.63;;;5.09;87.46
37206;BME280;23099;42.636;23.198;2022-12-18T10:10:53;93113.31;;;5.14;86.91
37206;BME280;23099;42.636;23.198;2022-12-18T10:13:28;93112.34;;;5.10;86.29
37206;BME280;23099;42.636;23.198;2022-12-18T10:16:04;93118.50;;;5.19;87.00
37206;BME280;23099;42.636;23.198;2022-12-18T10:18:44;93120.53;;;5.22;86.18
37206;BME280;23099;42.636;23.198;2022-12-18T10:21:19;93131.16;;;5.22;86.37
37206;BME280;23099;42.636;23.198;2022-12-18T10:23:54;93126.94;;;5.21;85.47
37206;BME280;23099;42.636;23.198;2022-12-18T10:26:27;93121.28;;;5.14;85.46
37206;BME280;23099;42.636;23.198;2022-12-18T10:28:54;93123.53;;;5.07;85.38
37206;BME280;23099;42.636;23.198;2022-12-18T10:31:22;93123.63;;;5.16;85.13
37206;BME280;23099;42.636;23.198;2022-12-18T10:33:49;93122.53;;;5.17;84.79
37206;BME280;23099;42.636;23.198;2022-12-18T10:36:16;93122.25;;;5.18;84.86
37206;BME280;23099;42.636;23.198;2022-12-18T10:38:42;93116.75;;;5.15;84.44
37206;BME280;23099;42.636;23.198;2022-12-18T10:41:25;93119.94;;;5.03;83.76
37206;BME280;23099;42.636;23.198;2022-12-18T10:44:11;93122.28;;;4.91;83.28
37206;BME280;23099;42.636;23.198;2022-12-18T10:46:38;93126.72;;;4.82;83.84
37206;BME280;23099;42.636;23.198;2022-12-18T10:49:05;93126.94;;;4.85;84.50
37206;BME280;23099;42.636;23.198;2022-12-18T10:51:44;93127.94;;;4.76;85.56
37206;BME280;23099;42.636;23.198;2022-12-18T10:54:15;93127.63;;;4.63;84.75
37206;BME280;23099;42.636;23.198;2022-12-18T10:56:43;93138.03;;;4.60;84.47
37206;BME280;23099;42.636;23.198;2022-12-18T10:59:12;93130.97;;;4.69;85.24
37206;BME280;23099;42.636;23.198;2022-12-18T11:01:48;93132.75;;;4.60;84.42
37206;BME280;23099;42.636;23.198;2022-12-18T11:04:19;93134.69;;;4.54;83.26
37206;BME280;23099;42.636;23.198;2022-12-18T11:06:55;93126.47;;;4.56;82.02
37206;BME280;23099;42.636;23.198;2022-12-18T11:09:24;93134.69;;;4.41;82.45
37206;BME280;23099;42.636;23.198;2022-12-18T11:11:52;93131.66;;;4.47;81.01
37206;BME280;23099;42.636;23.198;2022-12-18T11:14:23;93139.28;;;4.35;80.96
37206;BME280;23099;42.636;23.198;2022-12-18T11:16:52;93136.47;;;4.45;80.66
37206;BME280;23099;42.636;23.198;2022-12-18T11:19:24;93141.47;;;4.47;78.28
37206;BME280;23099;42.636;23.198;2022-12-18T11:21:52;93146.28;;;4.45;77.22
37206;BME280;23099;42.636;23.198;2022-12-18T11:24:24;93148.94;;;4.45;78.59
37206;BME280;23099;42.636;23.198;2022-12-18T11:26:53;93146.28;;;4.58;78.04
37206;BME280;23099;42.636;23.198;2022-12-18T11:29:28;93145.78;;;4.70;78.67
37206;BME280;23099;42.636;23.198;2022-12-18T11:32:19;93154.00;;;4.69;77.46
37206;BME280;23099;42.636;23.198;2022-12-18T11:34:52;93143.72;;;4.67;77.72
37206;BME280;23099;42.636;23.198;2022-12-18T11:37:22;93141.16;;;4.62;75.76
37206;BME280;23099;42.636;23.198;2022-12-18T11:39:52;93157.44;;;4.55;74.38
37206;BME280;23099;42.636;23.198;2022-12-18T11:42:25;93153.16;;;4.46;75.66
37206;BME280;23099;42.636;23.198;2022-12-18T11:45:00;93155.59;;;4.42;76.04
37206;BME280;23099;42.636;23.198;2022-12-18T11:47:33;93156.84;;;4.31;76.25
37206;BME280;23099;42.636;23.198;2022-12-18T11:50:05;93155.88;;;4.27;75.74
37206;BME280;23099;42.636;23.198;2022-12-18T11:52:39;93162.25;;;4.40;77.87
37206;BME280;23099;42.636;23.198;2022-12-18T11:55:11;93166.47;;;4.41;77.16
37206;BME280;23099;42.636;23.198;2022-12-18T11:57:47;93155.09;;;4.40;76.90
37206;BME280;23099;42.636;23.198;2022-12-18T12:00:20;93156.84;;;4.17;78.07
37206;BME280;23099;42.636;23.198;2022-12-18T12:03:13;93152.97;;;3.96;77.34
37206;BME280;23099;42.636;23.198;2022-12-18T12:05:55;93152.09;;;4.01;77.56
37206;BME280;23099;42.636;23.198;2022-12-18T12:08:34;93149.34;;;4.06;77.64
37206;BME280;23099;42.636;23.198;2022-12-18T12:11:10;93150.94;;;4.07;76.55
37206;BME280;23099;42.636;23.198;2022-12-18T12:13:44;93154.34;;;4.07;76.75
37206;BME280;23099;42.636;23.198;2022-12-18T12:16:18;93152.72;;;4.11;75.49
37206;BME280;23099;42.636;23.198;2022-12-18T12:18:58;93153.41;;;4.17;77.27
37206;BME280;23099;42.636;23.198;2022-12-18T12:21:34;93147.03;;;4.18;76.24
37206;BME280;23099;42.636;23.198;2022-12-18T12:24:10;93148.78;;;4.22;76.54
37206;BME280;23099;42.636;23.198;2022-12-18T12:26:49;93145.66;;;4.34;76.80
37206;BME280;23099;42.636;23.198;2022-12-18T12:29:27;93145.09;;;4.37;76.96
37206;BME280;23099;42.636;23.198;2022-12-18T12:32:11;93155.00;;;4.45;75.46
37206;BME280;23099;42.636;23.198;2022-12-18T12:34:47;93149.88;;;4.35;75.74
37206;BME280;23099;42.636;23.198;2022-12-18T12:37:26;93152.72;;;4.39;74.85
37206;BME280;23099;42.636;23.198;2022-12-18T12:39:57;93150.09;;;4.39;74.92
37206;BME280;23099;42.636;23.198;2022-12-18T12:42:30;93152.34;;;4.32;74.83
37206;BME280;23099;42.636;23.198;2022-12-18T12:45:21;93145.88;;;4.38;75.95
37206;BME280;23099;42.636;23.198;2022-12-18T12:47:52;93158.22;;;4.42;75.27
37206;BME280;23099;42.636;23.198;2022-12-18T12:50:20;93154.50;;;4.43;75.55
37206;BME280;23099;42.636;23.198;2022-12-18T12:52:50;93157.44;;;4.42;74.69
37206;BME280;23099;42.636;23.198;2022-12-18T12:55:21;93158.53;;;4.54;75.67
37206;BME280;23099;42.636;23.198;2022-12-18T12:57:54;93154.22;;;4.58;75.70
37206;BME280;23099;42.636;23.198;2022-12-18T13:00:22;93160.00;;;4.60;74.73
37206;BME280;23099;42.636;23.198;2022-12-18T13:02:53;93160.09;;;4.69;76.67
37206;BME280;23099;42.636;23.198;2022-12-18T13:05:31;93163.31;;;4.66;75.65
37206;BME280;23099;42.636;23.198;2022-12-18T13:08:03;93168.53;;;4.71;76.45
37206;BME280;23099;42.636;23.198;2022-12-18T13:10:33;93169.19;;;4.63;75.73
37206;BME280;23099;42.636;23.198;2022-12-18T13:13:02;93176.56;;;4.66;75.64